NGTA/TRW METAR and TAF weather

Enter ICAO airport designator
Station Type Date Time Source
NGTA METAR 2022/01/29 01:00 UTC NOAA

NGTA 290100Z 09012KT 9999 FEW020 31/23 Q1008


Station Type Date Time Source
NGTA Decoded METAR 2022/01/29 01:00 UTC NOAA

Tarawa, Kiribati (NGTA) 01-21N 172-55E 4M
Jan 28, 2022 - 08:00 PM EST / 2022.01.29 0100 UTC
Wind: from the E (090 degrees) at 14 MPH (12 KT):0
Visibility: greater than 7 mile(s):0
Sky conditions: mostly clear
Temperature: 87 F (31 C)
Heat index: 93.9 F (34.4 C):1
Dew Point: 73 F (23 C)
Relative Humidity: 62%
Pressure (altimeter): 29.77 in. Hg (1008 hPa)
ob: NGTA 290100Z 09012KT 9999 FEW020 31/23 Q1008
cycle: 1

Station Type Date Time Source
NGTA TAF 2022/01/28 18:09 UTC NOAA

TAF NGTA 281705Z 2818/2918 10007KT 9999 FEW020 PROB40
TEMPO 2900/2906 5000 TSRA BKN015 FEW018CB

Example: see airport list